This is the latest recevied weather packets stored in our database for station/object DK2OO-6. If no packets are shown the sender has not sent any weather packets the latest 10 day(s).
| Time | Temp. | Humidity | Pressure | Rain* | Wind** | Luminosity | Snow |
|---|---|---|---|---|---|---|---|
| 1777763596 | 8.89° C | 62% | 1010.6 hPa | 0 mm | - | - | - |
| 1777750294 | 14.44° C | 47% | 1011.4 hPa | 0 mm | - | - | - |
| 1777744253 | 21.11° C | 33% | 1011 hPa | 0 mm | - | - | - |
| 1777738802 | 23.89° C | 30% | 1011.6 hPa | 0 mm | - | - | - |
| 1777724909 | 24.44° C | 36% | 1014.2 hPa | 0 mm | - | - | - |
| 1777721885 | 23.33° C | 39% | 1014.9 hPa | 161.54 mm | - | - | - |
| 1777720678 | 22.78° C | 39% | 1015.1 hPa | 161.54 mm | - | - | - |
| 1777720069 | 23.33° C | 40% | 1015.3 hPa | 161.54 mm | - | - | - |
| 1777719463 | 22.78° C | 40% | 1015.4 hPa | 161.54 mm | - | - | - |
| 1777718254 | 22.78° C | 42% | 1015.6 hPa | 0 mm | - | - | - |
| 1777714624 | 21.11° C | 44% | 1016.2 hPa | 0 mm | - | - | - |
| 1777704977 | 9.44° C | 72% | 1016.8 hPa | 0 mm | - | - | - |
| 1777703763 | 6.67° C | 73% | 1016.8 hPa | 0 mm | - | - | - |
| 1777702548 | 5° C | 73% | 1016.9 hPa | 0 mm | - | - | - |
| 1777701343 | 4.44° C | 74% | 1016.9 hPa | 0 mm | - | - | - |
| 1777692866 | 2.22° C | 72% | 1016.8 hPa | 0 mm | - | - | - |
| 1777691653 | 2.22° C | 70% | 1017 hPa | 0 mm | - | - | - |
| 1777687423 | 3.89° C | 70% | 1017.2 hPa | 0 mm | - | - | - |
| 1777683801 | 4.44° C | 69% | 1017.5 hPa | 0 mm | - | - | - |
| 1777681998 | 4.44° C | 68% | 1017.6 hPa | 0 mm | - | - | - |
| 1777680179 | 5° C | 66% | 1017.9 hPa | 0 mm | - | - | - |
| 1777678369 | 5.56° C | 65% | 1018 hPa | 0 mm | - | - | - |
| 1777676565 | 6.11° C | 64% | 1018.1 hPa | 0 mm | - | - | - |
| 1777675958 | 6.11° C | 64% | 1018.3 hPa | 0 mm | - | - | - |
| 1777675358 | 6.11° C | 63% | 1018.3 hPa | 0 mm | - | - | - |
* Rain latest hour (hover to see other rain measurements)
** Current wind speed in m/s (hover to see current wind gust speed)